ADDS METAR Data INFO
IDs: Format: Raw Decoded Include TAF

Data at: 2118 UTC 23 Apr 2018

KEFD 231855Z 28010G17KT 10SM CLR 25/10 A3006

TAF KEFD 232000Z 2320/2502 29012G18KT 9999 SKC QNH3002INS
  BECMG 2323/2324 31009KT 9999 SKC QNH2999INS
  BECMG 2417/2418 33012KT 9999 SKC QNH3001INS TX26/2321Z TN15/2411Z